createdAt,value
2018-02-25T00:00:54.018Z,-3.00
2018-02-25T00:03:21.063Z,-3.10
2018-02-25T00:05:48.167Z,-2.90
2018-02-25T00:08:15.202Z,-3.10
2018-02-25T00:10:42.251Z,-3.00
2018-02-25T00:13:09.343Z,-3.00
2018-02-25T00:15:36.390Z,-3.00
2018-02-25T00:18:03.439Z,-3.00
2018-02-25T00:20:30.541Z,-3.00
2018-02-25T00:22:57.583Z,-3.00
2018-02-25T00:25:24.632Z,-3.10
2018-02-25T00:27:51.731Z,-3.10
2018-02-25T00:30:18.783Z,-3.00
2018-02-25T00:32:45.831Z,-3.00
2018-02-25T00:35:12.939Z,-3.10
2018-02-25T00:37:39.996Z,-3.10
2018-02-25T00:40:07.041Z,-3.00
2018-02-25T00:42:34.155Z,-3.00
2018-02-25T00:45:01.211Z,-3.10
2018-02-25T00:47:28.358Z,-3.10
2018-02-25T00:49:55.442Z,-3.10
2018-02-25T00:55:01.031Z,-3.00
2018-02-25T00:57:28.085Z,-3.00
2018-02-25T00:59:55.143Z,-3.10
2018-02-25T01:02:22.247Z,-3.10
2018-02-25T01:04:49.292Z,-3.10
2018-02-25T01:07:16.336Z,-3.00
2018-02-25T01:09:43.435Z,-3.10
2018-02-25T01:12:10.491Z,-3.10
2018-02-25T01:14:37.536Z,-3.10
2018-02-25T01:25:13.876Z,-3.30
2018-02-25T01:27:40.924Z,-3.30
2018-02-25T01:30:08.034Z,-3.40
2018-02-25T01:32:35.076Z,-3.40
2018-02-25T01:35:02.132Z,-3.30
2018-02-25T01:37:29.226Z,-3.30
2018-02-25T01:39:56.268Z,-3.30
2018-02-25T01:42:23.307Z,-3.40
2018-02-25T01:44:50.412Z,-3.40
2018-02-25T01:47:17.466Z,-3.40
2018-02-25T01:49:44.510Z,-3.50
2018-02-25T01:52:11.623Z,-3.40
2018-02-25T01:54:38.661Z,-3.60
2018-02-25T01:57:06.226Z,-3.60
2018-02-25T01:59:33.244Z,-3.70
2018-02-25T02:02:00.298Z,-3.70
2018-02-25T02:04:27.340Z,-3.60
2018-02-25T02:06:54.447Z,-3.70
2018-02-25T02:09:21.494Z,-3.70
2018-02-25T02:11:48.553Z,-3.70
2018-02-25T02:14:15.654Z,-3.60
2018-02-25T02:16:42.700Z,-3.80
2018-02-25T02:19:09.743Z,-3.80
2018-02-25T02:21:36.830Z,-3.90
2018-02-25T02:26:44.416Z,-3.80
2018-02-25T02:29:11.470Z,-3.80
2018-02-25T02:34:05.943Z,-3.80
2018-02-25T02:36:32.995Z,-3.80
2018-02-25T02:39:00.042Z,-3.80
2018-02-25T02:43:54.270Z,-3.90
2018-02-25T02:46:21.323Z,-3.90
2018-02-25T02:48:48.428Z,-3.80
2018-02-25T02:51:15.474Z,-3.70
2018-02-25T02:53:42.518Z,-3.90
2018-02-25T02:56:09.673Z,-4.00
2018-02-25T02:58:36.691Z,-4.10
2018-02-25T03:01:05.191Z,-4.00
2018-02-25T03:03:34.112Z,-4.00
2018-02-25T03:06:01.494Z,-3.90
2018-02-25T03:08:28.531Z,-4.10
2018-02-25T03:10:55.630Z,-4.10
2018-02-25T03:13:22.690Z,-4.20
2018-02-25T03:15:49.741Z,-4.20
2018-02-25T03:20:44.006Z,-4.20
2018-02-25T03:23:11.058Z,-4.10
2018-02-25T03:25:38.144Z,-4.20
2018-02-25T03:28:05.194Z,-4.10
2018-02-25T03:30:32.238Z,-4.30
2018-02-25T03:32:59.332Z,-4.40
2018-02-25T03:38:07.688Z,-4.50
2018-02-25T03:40:34.728Z,-4.50
2018-02-25T03:43:01.773Z,-4.30
2018-02-25T03:45:28.865Z,-4.30
2018-02-25T03:47:55.910Z,-4.40
2018-02-25T03:50:22.956Z,-4.30
2018-02-25T03:52:50.048Z,-4.40
2018-02-25T03:55:17.092Z,-4.30
2018-02-25T03:57:44.133Z,-4.40
2018-02-25T04:00:11.229Z,-4.50
2018-02-25T04:02:38.283Z,-4.60
2018-02-25T04:05:05.325Z,-4.50
2018-02-25T04:07:32.424Z,-4.70
2018-02-25T04:10:00.238Z,-4.60
2018-02-25T04:12:27.280Z,-4.50
2018-02-25T04:14:55.164Z,-4.70
2018-02-25T04:17:22.209Z,-4.60
2018-02-25T04:19:49.266Z,-4.60
2018-02-25T04:22:16.794Z,-4.70
2018-02-25T04:24:47.019Z,-4.80
2018-02-25T04:27:14.466Z,-4.90
2018-02-25T04:29:41.582Z,-4.80
2018-02-25T04:32:08.644Z,-4.80
2018-02-25T04:34:35.681Z,-5.10
2018-02-25T04:37:02.772Z,-4.90
2018-02-25T04:39:29.822Z,-4.90
2018-02-25T04:41:59.040Z,-4.90
2018-02-25T04:44:26.158Z,-4.90
2018-02-25T04:46:53.194Z,-4.90
2018-02-25T04:49:20.244Z,-5.00
2018-02-25T04:51:47.362Z,-5.00
2018-02-25T04:54:14.409Z,-5.00
2018-02-25T04:56:41.453Z,-5.10
2018-02-25T05:01:47.030Z,-5.10
2018-02-25T05:04:14.123Z,-5.00
2018-02-25T05:06:41.170Z,-4.90
2018-02-25T05:09:08.210Z,-4.90
2018-02-25T05:11:35.326Z,-5.00
2018-02-25T05:14:02.374Z,-5.10
2018-02-25T05:16:29.412Z,-5.20
2018-02-25T05:18:56.516Z,-5.10
2018-02-25T05:21:23.559Z,-5.10
2018-02-25T05:23:50.614Z,-5.10
2018-02-25T05:26:17.703Z,-5.00
2018-02-25T05:28:44.744Z,-5.10
2018-02-25T05:31:11.795Z,-5.30
2018-02-25T05:33:38.899Z,-5.20
2018-02-25T05:36:05.949Z,-5.20
2018-02-25T05:38:32.986Z,-5.30
2018-02-25T05:41:00.083Z,-5.10
2018-02-25T05:43:27.137Z,-5.20
2018-02-25T05:45:54.178Z,-5.30
2018-02-25T05:48:21.274Z,-5.30
2018-02-25T05:50:48.318Z,-5.20
2018-02-25T05:53:15.356Z,-5.30
2018-02-25T05:55:42.464Z,-5.30
2018-02-25T06:00:41.712Z,-5.40
2018-02-25T06:03:08.831Z,-5.40
2018-02-25T06:05:35.885Z,-5.30
2018-02-25T06:08:02.931Z,-5.40
2018-02-25T06:10:30.030Z,-5.40
2018-02-25T06:12:57.537Z,-5.40
2018-02-25T06:15:24.584Z,-5.30
2018-02-25T06:17:51.951Z,-5.50
2018-02-25T06:20:19.007Z,-5.50
2018-02-25T06:22:46.043Z,-5.50
2018-02-25T06:27:51.637Z,-5.60
2018-02-25T06:30:18.753Z,-5.80
2018-02-25T06:32:45.815Z,-5.80
2018-02-25T06:35:12.860Z,-5.70
2018-02-25T06:37:39.966Z,-5.70
2018-02-25T06:40:07.008Z,-5.80
2018-02-25T06:42:34.060Z,-5.80
2018-02-25T06:45:01.193Z,-5.80
2018-02-25T06:47:28.234Z,-5.80
2018-02-25T06:49:55.286Z,-5.90
2018-02-25T06:54:49.544Z,-5.70
2018-02-25T06:57:16.587Z,-5.80
2018-02-25T06:59:43.716Z,-5.80
2018-02-25T07:02:10.758Z,-6.00
2018-02-25T07:04:37.810Z,-5.80
2018-02-25T07:07:05.165Z,-5.90
2018-02-25T07:09:32.206Z,-5.80
2018-02-25T07:11:59.250Z,-5.80
2018-02-25T07:14:26.356Z,-5.80
2018-02-25T07:16:53.398Z,-5.90
2018-02-25T07:19:20.438Z,-5.70
2018-02-25T07:21:47.533Z,-5.90
2018-02-25T07:24:14.571Z,-5.90
2018-02-25T07:26:41.659Z,-5.90
2018-02-25T07:29:08.731Z,-5.80
2018-02-25T07:31:35.771Z,-5.70
2018-02-25T07:34:03.150Z,-5.60
2018-02-25T07:36:30.271Z,-5.70
2018-02-25T07:38:57.305Z,-5.60
2018-02-25T07:44:02.960Z,-5.50
2018-02-25T07:46:32.737Z,-5.30
2018-02-25T07:48:57.040Z,-5.50
2018-02-25T07:51:24.207Z,-5.50
2018-02-25T07:53:51.202Z,-5.30
2018-02-25T07:56:18.243Z,-5.30
2018-02-25T07:58:45.351Z,-5.40
2018-02-25T08:01:12.421Z,-5.30
2018-02-25T08:06:06.664Z,-5.30
2018-02-25T08:11:14.719Z,-5.10
2018-02-25T08:13:41.788Z,-5.10
2018-02-25T08:16:08.842Z,-5.10
2018-02-25T08:18:35.934Z,-5.10
2018-02-25T08:21:03.310Z,-4.90
2018-02-25T08:23:30.369Z,-5.00
2018-02-25T08:25:57.475Z,-5.10
2018-02-25T08:28:24.528Z,-4.90
2018-02-25T08:30:51.614Z,-4.70
2018-02-25T08:33:18.771Z,-4.50
2018-02-25T08:35:45.828Z,-4.50
2018-02-25T08:38:12.868Z,-4.60
2018-02-25T08:40:39.968Z,-4.70
2018-02-25T08:43:07.021Z,-4.60
2018-02-25T08:45:34.058Z,-4.60
2018-02-25T08:48:01.178Z,-4.20
2018-02-25T08:50:28.216Z,-4.20
2018-02-25T08:52:55.265Z,-4.30
2018-02-25T08:55:25.244Z,-4.00
2018-02-25T08:57:49.432Z,-4.10
2018-02-25T09:05:10.883Z,-4.00
2018-02-25T09:07:37.934Z,-4.00
2018-02-25T09:10:05.057Z,-4.30
2018-02-25T09:12:32.114Z,-4.10
2018-02-25T09:15:00.137Z,-3.90
2018-02-25T09:17:27.244Z,-3.70
2018-02-25T09:19:54.298Z,-4.00
2018-02-25T09:22:21.358Z,-3.80
2018-02-25T09:24:48.459Z,-4.00
2018-02-25T09:27:15.504Z,-3.90
2018-02-25T09:29:42.575Z,-4.00
2018-02-25T09:32:09.817Z,-4.30
2018-02-25T09:37:15.403Z,-3.80
2018-02-25T09:39:42.988Z,-4.00
2018-02-25T09:42:09.958Z,-4.10
2018-02-25T09:47:17.370Z,-3.90
2018-02-25T09:49:44.148Z,-4.40
2018-02-25T09:54:47.045Z,-4.00
2018-02-25T09:57:14.094Z,-3.70
2018-02-25T09:59:41.144Z,-3.80
2018-02-25T10:02:08.263Z,-3.30
2018-02-25T10:04:35.324Z,-3.30
2018-02-25T10:07:02.450Z,-3.10
2018-02-25T10:11:56.713Z,-3.40
2018-02-25T10:14:23.795Z,-3.80
2018-02-25T10:16:50.845Z,-3.40
2018-02-25T10:19:17.913Z,-2.60
2018-02-25T10:21:44.959Z,-2.40
2018-02-25T10:24:12.071Z,-2.30
2018-02-25T10:26:39.114Z,-2.40
2018-02-25T10:29:06.161Z,-2.30
2018-02-25T10:31:33.272Z,-2.10
2018-02-25T10:34:01.292Z,-2.00
2018-02-25T10:36:28.372Z,-2.50
2018-02-25T10:38:55.476Z,-2.50
2018-02-25T10:41:22.537Z,-2.70
2018-02-25T10:46:16.803Z,-2.10
2018-02-25T10:48:43.874Z,-1.60
2018-02-25T10:51:10.940Z,-1.20
2018-02-25T10:53:38.054Z,-1.90
2018-02-25T10:56:05.107Z,-1.50
2018-02-25T11:00:59.360Z,-1.50
2018-02-25T11:03:26.412Z,-1.80
2018-02-25T11:05:53.475Z,-1.70
2018-02-25T11:10:59.083Z,-1.30
2018-02-25T11:13:26.203Z,-1.40
2018-02-25T11:15:53.276Z,-0.90
2018-02-25T11:18:20.329Z,-0.70
2018-02-25T11:20:47.862Z,-1.00
2018-02-25T11:23:14.897Z,-1.20
2018-02-25T11:25:42.290Z,-1.50
2018-02-25T11:28:09.398Z,-1.60
2018-02-25T11:30:36.462Z,-1.50
2018-02-25T11:33:03.514Z,-2.10
2018-02-25T11:35:30.642Z,-2.20
2018-02-25T11:37:57.711Z,-1.90
2018-02-25T11:45:19.100Z,-1.90
2018-02-25T11:47:46.171Z,-2.30
2018-02-25T11:50:13.281Z,-1.90
2018-02-25T11:52:40.392Z,-2.10
2018-02-25T11:55:07.417Z,-1.80
2018-02-25T11:57:34.529Z,-1.70
2018-02-25T12:00:03.488Z,-1.80
2018-02-25T12:02:30.557Z,-2.10
2018-02-25T12:04:57.660Z,-2.20
2018-02-25T12:07:24.722Z,-2.40
2018-02-25T12:09:51.796Z,-2.20
2018-02-25T12:12:18.898Z,-2.30
2018-02-25T12:14:45.961Z,-2.40
2018-02-25T12:17:13.012Z,-2.20
2018-02-25T12:19:40.116Z,-1.90
2018-02-25T12:22:07.172Z,-2.20
2018-02-25T12:24:34.228Z,-2.50
2018-02-25T12:27:01.350Z,-2.30
2018-02-25T12:29:28.399Z,-2.00
2018-02-25T12:34:34.489Z,-2.40
2018-02-25T12:37:01.467Z,-2.20
2018-02-25T12:39:28.522Z,-2.30
2018-02-25T12:41:55.643Z,-2.20
2018-02-25T12:44:22.703Z,-2.20
2018-02-25T12:46:49.768Z,-2.20
2018-02-25T12:49:16.885Z,-2.20
2018-02-25T12:51:43.934Z,-2.40
2018-02-25T12:54:11.033Z,-2.20
2018-02-25T12:56:38.173Z,-2.20
2018-02-25T12:59:05.256Z,-2.40
2018-02-25T13:01:32.280Z,-2.40
2018-02-25T13:03:59.390Z,-2.40
2018-02-25T13:06:26.456Z,-2.50
2018-02-25T13:08:53.514Z,-2.40
2018-02-25T13:11:20.637Z,-2.20
2018-02-25T13:13:47.704Z,-1.90
2018-02-25T13:16:14.775Z,-1.90
2018-02-25T13:18:41.896Z,-1.90
2018-02-25T13:21:08.951Z,-2.40
2018-02-25T13:23:36.011Z,-2.00
2018-02-25T13:26:03.119Z,-2.10
2018-02-25T13:28:30.185Z,-2.70
2018-02-25T13:30:57.274Z,-2.40
2018-02-25T13:33:24.437Z,-2.60
2018-02-25T13:35:51.448Z,-2.60
2018-02-25T13:38:18.509Z,-2.40
2018-02-25T13:40:45.614Z,-2.30
2018-02-25T13:43:12.675Z,-2.50
2018-02-25T13:45:39.731Z,-2.30
2018-02-25T13:48:06.841Z,-2.20
2018-02-25T13:50:33.919Z,-2.40
2018-02-25T13:53:00.975Z,-2.70
2018-02-25T13:58:06.650Z,-2.50
2018-02-25T14:00:33.970Z,-2.40
2018-02-25T14:03:00.964Z,-2.50
2018-02-25T14:07:55.200Z,-2.70
2018-02-25T14:10:22.263Z,-2.50
2018-02-25T14:12:49.323Z,-2.50
2018-02-25T14:15:16.452Z,-2.40
2018-02-25T14:17:43.550Z,-2.60
2018-02-25T14:22:39.986Z,-2.70
2018-02-25T14:30:04.534Z,-2.90
2018-02-25T14:32:31.561Z,-2.90
2018-02-25T14:34:58.623Z,-2.80
2018-02-25T14:37:25.750Z,-2.90
2018-02-25T14:39:52.823Z,-3.00
2018-02-25T14:42:19.875Z,-3.10
2018-02-25T14:44:46.988Z,-3.00
2018-02-25T14:47:14.055Z,-3.10
2018-02-25T14:49:41.138Z,-3.10
2018-02-25T14:52:08.238Z,-3.20
2018-02-25T14:54:35.313Z,-3.00
2018-02-25T14:57:02.370Z,-3.20
2018-02-25T14:59:29.486Z,-3.30
2018-02-25T15:01:56.544Z,-3.20
2018-02-25T15:07:02.149Z,-3.30
2018-02-25T15:09:29.226Z,-3.30
2018-02-25T15:11:56.282Z,-3.40
2018-02-25T15:14:23.866Z,-3.50
2018-02-25T15:16:50.935Z,-3.40
2018-02-25T15:19:17.993Z,-3.40
2018-02-25T15:21:45.133Z,-3.60
2018-02-25T15:24:12.195Z,-3.60
2018-02-25T15:26:39.259Z,-3.70
2018-02-25T15:29:06.401Z,-3.70
2018-02-25T15:31:33.452Z,-3.60
2018-02-25T15:34:00.512Z,-3.50
2018-02-25T15:38:54.794Z,-3.50
2018-02-25T15:41:21.854Z,-3.60
2018-02-25T15:43:48.976Z,-3.50
2018-02-25T15:46:16.042Z,-3.40
2018-02-25T15:48:43.109Z,-3.70
2018-02-25T15:53:37.363Z,-3.70
2018-02-25T15:56:04.429Z,-3.50
2018-02-25T15:58:31.534Z,-3.60
2018-02-25T16:00:58.587Z,-3.80
2018-02-25T16:03:25.899Z,-3.90
2018-02-25T16:05:53.020Z,-3.80
2018-02-25T16:08:20.078Z,-3.80
2018-02-25T16:10:47.193Z,-3.80
2018-02-25T16:13:14.256Z,-4.00
2018-02-25T16:15:41.303Z,-4.10
2018-02-25T16:18:08.377Z,-4.20
2018-02-25T16:20:35.491Z,-4.10
2018-02-25T16:23:02.565Z,-4.10
2018-02-25T16:33:03.313Z,-4.40
2018-02-25T16:35:30.815Z,-4.40
2018-02-25T16:37:57.873Z,-4.40
2018-02-25T16:40:24.984Z,-4.40
2018-02-25T16:42:52.043Z,-4.40
2018-02-25T16:45:19.093Z,-4.30
2018-02-25T16:47:46.209Z,-4.40
2018-02-25T16:50:13.247Z,-4.60
2018-02-25T16:52:42.402Z,-4.60
2018-02-25T16:55:09.523Z,-4.60
2018-02-25T16:57:36.564Z,-4.60
2018-02-25T17:00:03.871Z,-4.60
2018-02-25T17:02:30.981Z,-4.50
2018-02-25T17:04:58.130Z,-4.70
2018-02-25T17:07:25.171Z,-4.70
2018-02-25T17:09:52.273Z,-4.60
2018-02-25T17:12:20.138Z,-4.70
2018-02-25T17:14:47.187Z,-4.80
2018-02-25T17:17:14.284Z,-4.80
2018-02-25T17:19:41.349Z,-4.90
2018-02-25T17:22:10.345Z,-4.90
2018-02-25T17:24:35.514Z,-4.90
2018-02-25T17:27:02.581Z,-4.90
2018-02-25T17:29:29.629Z,-4.90
2018-02-25T17:31:56.720Z,-5.00
2018-02-25T17:34:23.822Z,-5.00
2018-02-25T17:36:50.846Z,-5.00
2018-02-25T17:41:45.078Z,-5.00
2018-02-25T17:44:12.129Z,-5.10
2018-02-25T17:46:41.015Z,-5.10
2018-02-25T17:49:08.058Z,-5.20
2018-02-25T17:54:13.692Z,-5.10
2018-02-25T17:56:40.749Z,-5.10
2018-02-25T17:59:07.791Z,-5.00
2018-02-25T18:01:34.881Z,-4.90
2018-02-25T18:04:04.229Z,-5.00
2018-02-25T18:06:31.276Z,-5.10
2018-02-25T18:08:58.382Z,-5.10
2018-02-25T18:11:25.432Z,-5.20
2018-02-25T18:13:52.484Z,-5.20
2018-02-25T18:16:19.583Z,-5.30
2018-02-25T18:18:46.621Z,-5.40
2018-02-25T18:21:13.687Z,-5.30
2018-02-25T18:23:40.774Z,-5.40
2018-02-25T18:26:07.838Z,-5.30
2018-02-25T18:28:34.912Z,-5.30
2018-02-25T18:31:02.018Z,-5.50
2018-02-25T18:33:29.071Z,-5.30
2018-02-25T18:38:23.331Z,-5.30
2018-02-25T18:40:50.408Z,-5.40
2018-02-25T18:43:17.539Z,-5.30
2018-02-25T18:45:44.652Z,-5.30
2018-02-25T18:48:11.731Z,-5.20
2018-02-25T18:50:38.798Z,-5.20
2018-02-25T18:53:05.907Z,-5.20
2018-02-25T18:55:33.083Z,-5.20
2018-02-25T18:58:03.192Z,-5.10
2018-02-25T19:00:30.306Z,-5.20
2018-02-25T19:02:57.924Z,-5.20
2018-02-25T19:05:24.967Z,-5.20
2018-02-25T19:07:54.468Z,-5.30
2018-02-25T19:10:21.508Z,-5.40
2018-02-25T19:15:31.582Z,-5.20
2018-02-25T19:17:58.647Z,-5.20
2018-02-25T19:22:53.308Z,-5.40
2018-02-25T19:25:20.345Z,-5.50
2018-02-25T19:27:53.198Z,-5.40
2018-02-25T19:30:19.466Z,-5.40
2018-02-25T19:32:46.710Z,-5.40
2018-02-25T19:35:13.823Z,-5.40
2018-02-25T19:37:40.888Z,-5.50
2018-02-25T19:40:07.961Z,-5.40
2018-02-25T19:42:35.150Z,-5.40
2018-02-25T19:45:02.227Z,-5.40
2018-02-25T19:47:29.283Z,-5.40
2018-02-25T19:49:57.401Z,-5.40
2018-02-25T19:52:24.487Z,-5.60
2018-02-25T19:54:51.557Z,-5.60
2018-02-25T19:57:18.693Z,-5.50
2018-02-25T19:59:50.656Z,-5.50
2018-02-25T20:02:18.097Z,-5.60
2018-02-25T20:04:45.244Z,-5.70
2018-02-25T20:07:43.769Z,-5.60
2018-02-25T20:09:47.143Z,-5.60
2018-02-25T20:14:45.807Z,-5.60
2018-02-25T20:19:53.907Z,-5.70
2018-02-25T20:22:21.078Z,-5.70
2018-02-25T20:27:15.313Z,-5.80
2018-02-25T20:29:42.406Z,-5.80
2018-02-25T20:32:10.135Z,-5.80
2018-02-25T20:34:37.191Z,-5.70
2018-02-25T20:37:04.327Z,-5.70
2018-02-25T20:39:31.435Z,-5.80
2018-02-25T20:41:58.501Z,-5.70
2018-02-25T20:44:25.624Z,-5.70
2018-02-25T20:46:52.679Z,-5.60
2018-02-25T20:49:19.816Z,-5.50
2018-02-25T20:51:46.874Z,-5.50
2018-02-25T20:54:13.969Z,-6.00
2018-02-25T20:56:41.014Z,-5.80
2018-02-25T20:59:08.142Z,-5.70
2018-02-25T21:01:35.284Z,-5.70
2018-02-25T21:04:02.345Z,-5.80
2018-02-25T21:06:29.416Z,-6.00
2018-02-25T21:11:23.734Z,-6.00
2018-02-25T21:18:58.996Z,-6.00
2018-02-25T21:21:24.924Z,-6.10
2018-02-25T21:23:52.061Z,-6.10
2018-02-25T21:26:19.143Z,-6.20
2018-02-25T21:28:46.397Z,-6.30
2018-02-25T21:31:13.467Z,-6.30
2018-02-25T21:33:40.499Z,-6.30
2018-02-25T21:36:07.615Z,-6.40
2018-02-25T21:38:36.029Z,-6.50
2018-02-25T21:43:41.627Z,-6.60
2018-02-25T21:46:08.709Z,-6.50
2018-02-25T21:48:35.767Z,-6.40
2018-02-25T21:51:02.893Z,-6.50
2018-02-25T21:53:29.951Z,-6.50
2018-02-25T21:55:57.012Z,-6.60
2018-02-25T21:58:24.112Z,-6.60
2018-02-25T22:03:18.274Z,-6.40
2018-02-25T22:05:45.398Z,-6.40
2018-02-25T22:08:12.467Z,-6.60
2018-02-25T22:10:39.532Z,-6.60
2018-02-25T22:13:06.637Z,-6.70
2018-02-25T22:15:33.693Z,-6.70
2018-02-25T22:18:00.780Z,-6.70
2018-02-25T22:23:09.008Z,-6.90
2018-02-25T22:25:36.124Z,-6.60
2018-02-25T22:28:03.195Z,-6.70
2018-02-25T22:30:30.258Z,-6.70
2018-02-25T22:35:24.561Z,-6.80
2018-02-25T22:37:51.620Z,-6.80
2018-02-25T22:40:18.755Z,-6.80
2018-02-25T22:42:46.297Z,-6.90
2018-02-25T22:50:07.713Z,-7.00
2018-02-25T22:52:34.779Z,-6.90
2018-02-25T22:55:01.897Z,-6.80
2018-02-25T22:57:28.972Z,-7.00
2018-02-25T22:59:56.362Z,-7.00
2018-02-25T23:02:23.493Z,-7.10
2018-02-25T23:09:46.975Z,-7.20
2018-02-25T23:12:20.417Z,-7.20
2018-02-25T23:14:47.526Z,-7.20
2018-02-25T23:24:36.088Z,-7.30
2018-02-25T23:27:03.160Z,-7.40
2018-02-25T23:29:30.274Z,-7.40
2018-02-25T23:31:57.355Z,-7.40
2018-02-25T23:34:24.411Z,-7.40
2018-02-25T23:39:18.694Z,-7.30
2018-02-25T23:44:12.968Z,-7.30
2018-02-25T23:49:19.420Z,-7.20
2018-02-25T23:51:46.481Z,-7.40
2018-02-25T23:54:13.549Z,-7.40
2018-02-25T23:56:40.694Z,-7.40
